sensor_id;sensor_type;location;lat;lon;timestamp;P1;durP1;ratioP1;P2;durP2;ratioP2
11328;SDS011;5719;42.714;23.732;2024-03-08T00:00:04;0.80;;;0.80;;
11328;SDS011;5719;42.714;23.732;2024-03-08T00:02:37;0.77;;;0.77;;
11328;SDS011;5719;42.714;23.732;2024-03-08T00:05:04;0.95;;;0.95;;
11328;SDS011;5719;42.714;23.732;2024-03-08T00:07:33;1.00;;;1.00;;
11328;SDS011;5719;42.714;23.732;2024-03-08T00:10:01;1.08;;;1.05;;
11328;SDS011;5719;42.714;23.732;2024-03-08T00:12:29;0.90;;;0.90;;
11328;SDS011;5719;42.714;23.732;2024-03-08T00:14:56;0.82;;;0.82;;
11328;SDS011;5719;42.714;23.732;2024-03-08T00:17:23;0.73;;;0.73;;
11328;SDS011;5719;42.714;23.732;2024-03-08T00:19:50;0.80;;;0.80;;
11328;SDS011;5719;42.714;23.732;2024-03-08T00:22:17;0.90;;;0.90;;
11328;SDS011;5719;42.714;23.732;2024-03-08T00:24:44;2.42;;;0.70;;
11328;SDS011;5719;42.714;23.732;2024-03-08T00:27:11;2.20;;;0.82;;
11328;SDS011;5719;42.714;23.732;2024-03-08T00:29:39;0.70;;;0.70;;
11328;SDS011;5719;42.714;23.732;2024-03-08T00:32:06;0.90;;;0.90;;
11328;SDS011;5719;42.714;23.732;2024-03-08T00:34:34;1.02;;;1.00;;
11328;SDS011;5719;42.714;23.732;2024-03-08T00:37:02;3.00;;;2.15;;
11328;SDS011;5719;42.714;23.732;2024-03-08T00:39:29;3.58;;;2.20;;
11328;SDS011;5719;42.714;23.732;2024-03-08T00:41:56;3.08;;;2.10;;
11328;SDS011;5719;42.714;23.732;2024-03-08T00:44:23;2.60;;;1.88;;
11328;SDS011;5719;42.714;23.732;2024-03-08T00:46:51;2.83;;;2.25;;
11328;SDS011;5719;42.714;23.732;2024-03-08T00:49:18;8.40;;;2.70;;
11328;SDS011;5719;42.714;23.732;2024-03-08T00:51:45;4.80;;;2.65;;
11328;SDS011;5719;42.714;23.732;2024-03-08T00:54:11;2.92;;;1.90;;
11328;SDS011;5719;42.714;23.732;2024-03-08T00:56:38;1.77;;;1.48;;
11328;SDS011;5719;42.714;23.732;2024-03-08T00:59:06;1.30;;;1.20;;
11328;SDS011;5719;42.714;23.732;2024-03-08T01:01:33;0.88;;;0.85;;
11328;SDS011;5719;42.714;23.732;2024-03-08T01:04:01;1.20;;;1.10;;
11328;SDS011;5719;42.714;23.732;2024-03-08T01:06:28;0.90;;;0.90;;
11328;SDS011;5719;42.714;23.732;2024-03-08T01:08:55;1.05;;;0.93;;
11328;SDS011;5719;42.714;23.732;2024-03-08T01:11:22;2.03;;;1.60;;
11328;SDS011;5719;42.714;23.732;2024-03-08T01:13:49;1.35;;;1.17;;
11328;SDS011;5719;42.714;23.732;2024-03-08T01:16:16;1.45;;;1.35;;
11328;SDS011;5719;42.714;23.732;2024-03-08T01:18:45;4.32;;;2.50;;
11328;SDS011;5719;42.714;23.732;2024-03-08T01:21:13;4.68;;;2.97;;
11328;SDS011;5719;42.714;23.732;2024-03-08T01:23:40;3.58;;;2.38;;
11328;SDS011;5719;42.714;23.732;2024-03-08T01:26:07;6.57;;;3.28;;
11328;SDS011;5719;42.714;23.732;2024-03-08T01:28:34;3.80;;;2.20;;
11328;SDS011;5719;42.714;23.732;2024-03-08T01:31:01;3.10;;;2.08;;
11328;SDS011;5719;42.714;23.732;2024-03-08T01:33:28;2.10;;;1.90;;
11328;SDS011;5719;42.714;23.732;2024-03-08T01:35:57;2.83;;;2.17;;
11328;SDS011;5719;42.714;23.732;2024-03-08T01:38:26;2.17;;;1.42;;
11328;SDS011;5719;42.714;23.732;2024-03-08T01:40:53;2.45;;;2.25;;
11328;SDS011;5719;42.714;23.732;2024-03-08T01:43:19;2.38;;;1.80;;
11328;SDS011;5719;42.714;23.732;2024-03-08T01:45:47;1.90;;;1.70;;
11328;SDS011;5719;42.714;23.732;2024-03-08T01:48:14;1.38;;;1.27;;
11328;SDS011;5719;42.714;23.732;2024-03-08T01:50:41;1.17;;;1.13;;
11328;SDS011;5719;42.714;23.732;2024-03-08T01:53:09;3.20;;;1.20;;
11328;SDS011;5719;42.714;23.732;2024-03-08T01:55:38;1.10;;;1.00;;
11328;SDS011;5719;42.714;23.732;2024-03-08T01:58:05;1.52;;;1.40;;
11328;SDS011;5719;42.714;23.732;2024-03-08T02:00:33;4.07;;;1.00;;
11328;SDS011;5719;42.714;23.732;2024-03-08T02:03:01;1.40;;;1.30;;
11328;SDS011;5719;42.714;23.732;2024-03-08T02:05:29;1.38;;;1.27;;
11328;SDS011;5719;42.714;23.732;2024-03-08T02:07:56;2.92;;;2.63;;
11328;SDS011;5719;42.714;23.732;2024-03-08T02:10:23;2.75;;;2.03;;
11328;SDS011;5719;42.714;23.732;2024-03-08T02:12:51;2.40;;;2.10;;
11328;SDS011;5719;42.714;23.732;2024-03-08T02:15:18;3.90;;;2.67;;
11328;SDS011;5719;42.714;23.732;2024-03-08T02:17:45;5.10;;;2.40;;
11328;SDS011;5719;42.714;23.732;2024-03-08T02:20:12;2.67;;;2.05;;
11328;SDS011;5719;42.714;23.732;2024-03-08T02:22:40;2.65;;;1.95;;
11328;SDS011;5719;42.714;23.732;2024-03-08T02:25:09;2.30;;;2.10;;
11328;SDS011;5719;42.714;23.732;2024-03-08T02:27:37;2.70;;;2.03;;
11328;SDS011;5719;42.714;23.732;2024-03-08T02:30:04;3.80;;;1.80;;
11328;SDS011;5719;42.714;23.732;2024-03-08T02:32:32;1.75;;;1.65;;
11328;SDS011;5719;42.714;23.732;2024-03-08T02:34:59;2.97;;;1.27;;
11328;SDS011;5719;42.714;23.732;2024-03-08T02:37:26;0.90;;;0.90;;
11328;SDS011;5719;42.714;23.732;2024-03-08T02:39:54;0.90;;;0.90;;
11328;SDS011;5719;42.714;23.732;2024-03-08T02:42:21;1.42;;;1.27;;
11328;SDS011;5719;42.714;23.732;2024-03-08T02:44:49;1.50;;;1.25;;
11328;SDS011;5719;42.714;23.732;2024-03-08T02:47:16;1.40;;;1.30;;
11328;SDS011;5719;42.714;23.732;2024-03-08T02:49:42;1.60;;;1.50;;
11328;SDS011;5719;42.714;23.732;2024-03-08T02:52:09;1.50;;;1.40;;
11328;SDS011;5719;42.714;23.732;2024-03-08T02:54:36;1.60;;;1.50;;
11328;SDS011;5719;42.714;23.732;2024-03-08T02:57:04;1.75;;;1.65;;
11328;SDS011;5719;42.714;23.732;2024-03-08T02:59:32;1.85;;;1.63;;
11328;SDS011;5719;42.714;23.732;2024-03-08T03:01:59;2.00;;;1.90;;
11328;SDS011;5719;42.714;23.732;2024-03-08T03:04:26;2.75;;;2.53;;
11328;SDS011;5719;42.714;23.732;2024-03-08T03:06:53;2.95;;;2.47;;
11328;SDS011;5719;42.714;23.732;2024-03-08T03:09:20;5.13;;;3.50;;
11328;SDS011;5719;42.714;23.732;2024-03-08T03:11:52;5.28;;;4.15;;
11328;SDS011;5719;42.714;23.732;2024-03-08T03:14:21;6.78;;;5.00;;
11328;SDS011;5719;42.714;23.732;2024-03-08T03:16:47;9.77;;;5.53;;
11328;SDS011;5719;42.714;23.732;2024-03-08T03:19:15;9.13;;;5.57;;
11328;SDS011;5719;42.714;23.732;2024-03-08T03:21:42;8.98;;;5.95;;
11328;SDS011;5719;42.714;23.732;2024-03-08T03:24:09;10.57;;;5.75;;
11328;SDS011;5719;42.714;23.732;2024-03-08T03:26:36;11.98;;;6.47;;
11328;SDS011;5719;42.714;23.732;2024-03-08T03:29:04;12.02;;;7.15;;
11328;SDS011;5719;42.714;23.732;2024-03-08T03:31:35;10.60;;;6.75;;
11328;SDS011;5719;42.714;23.732;2024-03-08T03:34:02;10.73;;;6.60;;
11328;SDS011;5719;42.714;23.732;2024-03-08T03:36:29;13.15;;;7.30;;
11328;SDS011;5719;42.714;23.732;2024-03-08T03:38:56;14.73;;;8.13;;
11328;SDS011;5719;42.714;23.732;2024-03-08T03:41:32;16.27;;;9.65;;
11328;SDS011;5719;42.714;23.732;2024-03-08T03:43:59;16.17;;;9.45;;
11328;SDS011;5719;42.714;23.732;2024-03-08T03:46:26;20.80;;;10.00;;
11328;SDS011;5719;42.714;23.732;2024-03-08T03:48:54;20.42;;;11.32;;
11328;SDS011;5719;42.714;23.732;2024-03-08T03:51:21;17.88;;;10.63;;
11328;SDS011;5719;42.714;23.732;2024-03-08T03:53:48;19.60;;;10.73;;
11328;SDS011;5719;42.714;23.732;2024-03-08T03:56:15;19.15;;;11.43;;
11328;SDS011;5719;42.714;23.732;2024-03-08T03:58:41;20.35;;;11.25;;
11328;SDS011;5719;42.714;23.732;2024-03-08T04:01:08;20.50;;;11.18;;
11328;SDS011;5719;42.714;23.732;2024-03-08T04:03:35;18.77;;;10.48;;
11328;SDS011;5719;42.714;23.732;2024-03-08T04:06:04;17.63;;;10.18;;
11328;SDS011;5719;42.714;23.732;2024-03-08T04:08:31;14.82;;;9.07;;
11328;SDS011;5719;42.714;23.732;2024-03-08T04:10:59;15.55;;;8.77;;
11328;SDS011;5719;42.714;23.732;2024-03-08T04:13:26;14.43;;;8.55;;
11328;SDS011;5719;42.714;23.732;2024-03-08T04:15:54;13.45;;;8.57;;
11328;SDS011;5719;42.714;23.732;2024-03-08T04:18:21;12.35;;;8.18;;
11328;SDS011;5719;42.714;23.732;2024-03-08T04:20:48;13.15;;;8.48;;
11328;SDS011;5719;42.714;23.732;2024-03-08T04:23:16;13.23;;;8.60;;
11328;SDS011;5719;42.714;23.732;2024-03-08T04:25:44;13.40;;;7.55;;
11328;SDS011;5719;42.714;23.732;2024-03-08T04:28:11;15.48;;;8.02;;
11328;SDS011;5719;42.714;23.732;2024-03-08T04:30:38;12.70;;;7.55;;
11328;SDS011;5719;42.714;23.732;2024-03-08T04:33:05;9.68;;;6.35;;
11328;SDS011;5719;42.714;23.732;2024-03-08T04:35:33;10.13;;;6.88;;
11328;SDS011;5719;42.714;23.732;2024-03-08T04:38:00;9.10;;;6.80;;
11328;SDS011;5719;42.714;23.732;2024-03-08T04:40:28;11.65;;;6.65;;
11328;SDS011;5719;42.714;23.732;2024-03-08T04:42:55;9.95;;;6.50;;
11328;SDS011;5719;42.714;23.732;2024-03-08T04:45:23;8.85;;;5.85;;
11328;SDS011;5719;42.714;23.732;2024-03-08T04:47:51;8.32;;;6.20;;
11328;SDS011;5719;42.714;23.732;2024-03-08T04:50:18;9.98;;;6.00;;
11328;SDS011;5719;42.714;23.732;2024-03-08T04:52:44;8.38;;;5.90;;
11328;SDS011;5719;42.714;23.732;2024-03-08T04:55:11;8.65;;;5.80;;
11328;SDS011;5719;42.714;23.732;2024-03-08T04:57:39;9.82;;;5.90;;
11328;SDS011;5719;42.714;23.732;2024-03-08T05:00:07;7.57;;;5.53;;
11328;SDS011;5719;42.714;23.732;2024-03-08T05:02:36;9.32;;;6.38;;
11328;SDS011;5719;42.714;23.732;2024-03-08T05:05:04;7.88;;;5.63;;
11328;SDS011;5719;42.714;23.732;2024-03-08T05:07:32;8.75;;;5.75;;
11328;SDS011;5719;42.714;23.732;2024-03-08T05:09:59;9.68;;;6.05;;
11328;SDS011;5719;42.714;23.732;2024-03-08T05:12:27;9.40;;;5.80;;
11328;SDS011;5719;42.714;23.732;2024-03-08T05:14:55;7.38;;;5.47;;
11328;SDS011;5719;42.714;23.732;2024-03-08T05:17:22;7.90;;;5.70;;
11328;SDS011;5719;42.714;23.732;2024-03-08T05:19:49;9.45;;;5.68;;
11328;SDS011;5719;42.714;23.732;2024-03-08T05:22:16;6.45;;;5.15;;
11328;SDS011;5719;42.714;23.732;2024-03-08T05:24:44;7.63;;;5.88;;
11328;SDS011;5719;42.714;23.732;2024-03-08T05:27:11;8.70;;;6.03;;
11328;SDS011;5719;42.714;23.732;2024-03-08T05:29:38;8.07;;;5.18;;
11328;SDS011;5719;42.714;23.732;2024-03-08T05:32:06;7.90;;;5.40;;
11328;SDS011;5719;42.714;23.732;2024-03-08T05:34:34;8.02;;;5.47;;
11328;SDS011;5719;42.714;23.732;2024-03-08T05:37:01;6.90;;;5.35;;
11328;SDS011;5719;42.714;23.732;2024-03-08T05:39:28;8.18;;;5.93;;
11328;SDS011;5719;42.714;23.732;2024-03-08T05:41:55;6.45;;;5.10;;
11328;SDS011;5719;42.714;23.732;2024-03-08T05:44:22;6.63;;;5.15;;
11328;SDS011;5719;42.714;23.732;2024-03-08T05:46:48;8.20;;;5.60;;
11328;SDS011;5719;42.714;23.732;2024-03-08T05:49:17;6.68;;;5.25;;
11328;SDS011;5719;42.714;23.732;2024-03-08T05:51:43;6.93;;;5.10;;
11328;SDS011;5719;42.714;23.732;2024-03-08T05:54:12;6.80;;;4.72;;
11328;SDS011;5719;42.714;23.732;2024-03-08T05:56:39;5.35;;;4.47;;
11328;SDS011;5719;42.714;23.732;2024-03-08T05:59:07;5.55;;;4.57;;
11328;SDS011;5719;42.714;23.732;2024-03-08T06:01:34;6.03;;;4.57;;
11328;SDS011;5719;42.714;23.732;2024-03-08T06:04:02;5.80;;;4.10;;
11328;SDS011;5719;42.714;23.732;2024-03-08T06:06:31;4.80;;;4.25;;
11328;SDS011;5719;42.714;23.732;2024-03-08T06:08:58;4.60;;;4.20;;
11328;SDS011;5719;42.714;23.732;2024-03-08T06:11:25;6.57;;;4.68;;
11328;SDS011;5719;42.714;23.732;2024-03-08T06:13:53;5.25;;;4.40;;
11328;SDS011;5719;42.714;23.732;2024-03-08T06:16:25;6.95;;;4.65;;
11328;SDS011;5719;42.714;23.732;2024-03-08T06:18:54;5.82;;;4.28;;
11328;SDS011;5719;42.714;23.732;2024-03-08T06:21:22;5.35;;;4.22;;
11328;SDS011;5719;42.714;23.732;2024-03-08T06:23:52;5.28;;;4.00;;
11328;SDS011;5719;42.714;23.732;2024-03-08T06:26:22;4.85;;;3.70;;
11328;SDS011;5719;42.714;23.732;2024-03-08T06:28:49;4.00;;;3.50;;
11328;SDS011;5719;42.714;23.732;2024-03-08T06:31:17;3.95;;;3.60;;
11328;SDS011;5719;42.714;23.732;2024-03-08T06:33:44;4.80;;;3.83;;
11328;SDS011;5719;42.714;23.732;2024-03-08T06:36:11;6.15;;;3.88;;
11328;SDS011;5719;42.714;23.732;2024-03-08T06:38:38;3.78;;;3.47;;
11328;SDS011;5719;42.714;23.732;2024-03-08T06:41:08;4.03;;;3.58;;
11328;SDS011;5719;42.714;23.732;2024-03-08T06:43:40;4.38;;;3.38;;
11328;SDS011;5719;42.714;23.732;2024-03-08T06:46:07;4.20;;;3.50;;
11328;SDS011;5719;42.714;23.732;2024-03-08T06:48:34;4.30;;;3.65;;
11328;SDS011;5719;42.714;23.732;2024-03-08T06:51:02;4.05;;;3.65;;
11328;SDS011;5719;42.714;23.732;2024-03-08T06:53:29;3.67;;;3.30;;
11328;SDS011;5719;42.714;23.732;2024-03-08T06:55:56;3.30;;;3.00;;
11328;SDS011;5719;42.714;23.732;2024-03-08T06:58:25;3.53;;;3.22;;
11328;SDS011;5719;42.714;23.732;2024-03-08T07:00:52;4.72;;;3.05;;
11328;SDS011;5719;42.714;23.732;2024-03-08T07:03:23;4.10;;;3.70;;
11328;SDS011;5719;42.714;23.732;2024-03-08T07:05:51;3.10;;;2.80;;
11328;SDS011;5719;42.714;23.732;2024-03-08T07:08:19;3.95;;;2.78;;
11328;SDS011;5719;42.714;23.732;2024-03-08T07:10:47;3.13;;;2.83;;
11328;SDS011;5719;42.714;23.732;2024-03-08T07:13:14;3.13;;;2.83;;
11328;SDS011;5719;42.714;23.732;2024-03-08T07:15:43;5.00;;;3.13;;
11328;SDS011;5719;42.714;23.732;2024-03-08T07:18:10;3.67;;;3.05;;
11328;SDS011;5719;42.714;23.732;2024-03-08T07:20:39;3.22;;;2.83;;
11328;SDS011;5719;42.714;23.732;2024-03-08T07:23:06;2.80;;;2.50;;
11328;SDS011;5719;42.714;23.732;2024-03-08T07:25:33;2.60;;;2.40;;
11328;SDS011;5719;42.714;23.732;2024-03-08T07:28:00;2.63;;;2.42;;
11328;SDS011;5719;42.714;23.732;2024-03-08T07:30:27;2.55;;;2.35;;
11328;SDS011;5719;42.714;23.732;2024-03-08T07:33:24;2.70;;;2.50;;
11328;SDS011;5719;42.714;23.732;2024-03-08T07:35:52;2.80;;;2.50;;
11328;SDS011;5719;42.714;23.732;2024-03-08T07:38:19;2.50;;;2.30;;
11328;SDS011;5719;42.714;23.732;2024-03-08T07:40:46;2.25;;;2.05;;
11328;SDS011;5719;42.714;23.732;2024-03-08T07:43:13;2.10;;;2.00;;
11328;SDS011;5719;42.714;23.732;2024-03-08T07:45:40;2.75;;;1.88;;
11328;SDS011;5719;42.714;23.732;2024-03-08T07:48:07;2.33;;;2.08;;
11328;SDS011;5719;42.714;23.732;2024-03-08T07:50:36;1.92;;;1.83;;
11328;SDS011;5719;42.714;23.732;2024-03-08T07:53:04;1.75;;;1.65;;
11328;SDS011;5719;42.714;23.732;2024-03-08T07:55:32;1.65;;;1.55;;
11328;SDS011;5719;42.714;23.732;2024-03-08T07:58:00;2.10;;;1.90;;
11328;SDS011;5719;42.714;23.732;2024-03-08T08:00:28;2.85;;;2.17;;
11328;SDS011;5719;42.714;23.732;2024-03-08T08:02:56;1.70;;;1.60;;
11328;SDS011;5719;42.714;23.732;2024-03-08T08:05:23;1.70;;;1.60;;
11328;SDS011;5719;42.714;23.732;2024-03-08T08:07:51;1.60;;;1.50;;
11328;SDS011;5719;42.714;23.732;2024-03-08T08:10:18;1.35;;;1.30;;
11328;SDS011;5719;42.714;23.732;2024-03-08T08:12:46;2.15;;;2.05;;
11328;SDS011;5719;42.714;23.732;2024-03-08T08:15:13;1.60;;;1.50;;
11328;SDS011;5719;42.714;23.732;2024-03-08T08:17:41;1.40;;;1.30;;
11328;SDS011;5719;42.714;23.732;2024-03-08T08:20:08;1.50;;;1.40;;
11328;SDS011;5719;42.714;23.732;2024-03-08T08:22:36;1.70;;;1.60;;
11328;SDS011;5719;42.714;23.732;2024-03-08T08:25:05;2.30;;;1.30;;
11328;SDS011;5719;42.714;23.732;2024-03-08T08:27:32;1.35;;;1.25;;
11328;SDS011;5719;42.714;23.732;2024-03-08T08:30:01;1.15;;;1.13;;
11328;SDS011;5719;42.714;23.732;2024-03-08T08:32:33;1.40;;;1.30;;
11328;SDS011;5719;42.714;23.732;2024-03-08T08:35:00;2.95;;;1.23;;
11328;SDS011;5719;42.714;23.732;2024-03-08T08:37:27;1.50;;;1.15;;
11328;SDS011;5719;42.714;23.732;2024-03-08T08:39:54;1.08;;;1.08;;
11328;SDS011;5719;42.714;23.732;2024-03-08T08:42:22;1.10;;;1.00;;
11328;SDS011;5719;42.714;23.732;2024-03-08T08:44:48;1.23;;;1.08;;
11328;SDS011;5719;42.714;23.732;2024-03-08T08:47:15;1.33;;;1.23;;
11328;SDS011;5719;42.714;23.732;2024-03-08T08:49:43;1.73;;;1.40;;
11328;SDS011;5719;42.714;23.732;2024-03-08T08:52:11;1.42;;;1.33;;
11328;SDS011;5719;42.714;23.732;2024-03-08T08:54:38;1.13;;;1.13;;
11328;SDS011;5719;42.714;23.732;2024-03-08T08:57:05;1.10;;;1.10;;
11328;SDS011;5719;42.714;23.732;2024-03-08T08:59:34;1.30;;;1.20;;
11328;SDS011;5719;42.714;23.732;2024-03-08T09:02:01;1.00;;;1.00;;
11328;SDS011;5719;42.714;23.732;2024-03-08T09:04:28;1.27;;;1.20;;
11328;SDS011;5719;42.714;23.732;2024-03-08T09:06:55;2.13;;;1.60;;
11328;SDS011;5719;42.714;23.732;2024-03-08T09:09:22;4.95;;;1.30;;
11328;SDS011;5719;42.714;23.732;2024-03-08T09:11:50;1.42;;;1.33;;
11328;SDS011;5719;42.714;23.732;2024-03-08T09:14:17;1.20;;;1.17;;
11328;SDS011;5719;42.714;23.732;2024-03-08T09:16:46;1.52;;;1.42;;
11328;SDS011;5719;42.714;23.732;2024-03-08T09:19:13;1.48;;;1.38;;
11328;SDS011;5719;42.714;23.732;2024-03-08T09:21:40;2.60;;;1.40;;
11328;SDS011;5719;42.714;23.732;2024-03-08T09:24:07;2.22;;;1.27;;
11328;SDS011;5719;42.714;23.732;2024-03-08T09:26:34;1.30;;;1.20;;
11328;SDS011;5719;42.714;23.732;2024-03-08T09:29:00;1.15;;;1.10;;
11328;SDS011;5719;42.714;23.732;2024-03-08T09:31:27;1.95;;;1.05;;
11328;SDS011;5719;42.714;23.732;2024-03-08T09:33:55;1.30;;;1.20;;
11328;SDS011;5719;42.714;23.732;2024-03-08T09:36:22;1.30;;;1.20;;
11328;SDS011;5719;42.714;23.732;2024-03-08T09:38:50;1.15;;;1.15;;
11328;SDS011;5719;42.714;23.732;2024-03-08T09:41:18;1.30;;;1.25;;
11328;SDS011;5719;42.714;23.732;2024-03-08T09:43:45;1.30;;;1.20;;
11328;SDS011;5719;42.714;23.732;2024-03-08T09:46:12;1.35;;;1.25;;
11328;SDS011;5719;42.714;23.732;2024-03-08T09:48:41;1.00;;;1.00;;
11328;SDS011;5719;42.714;23.732;2024-03-08T09:51:09;1.00;;;1.00;;
11328;SDS011;5719;42.714;23.732;2024-03-08T09:53:40;1.40;;;1.30;;
11328;SDS011;5719;42.714;23.732;2024-03-08T09:56:07;1.65;;;1.25;;
11328;SDS011;5719;42.714;23.732;2024-03-08T09:58:34;1.50;;;1.40;;
11328;SDS011;5719;42.714;23.732;2024-03-08T10:01:19;1.80;;;1.60;;
11328;SDS011;5719;42.714;23.732;2024-03-08T10:03:46;1.30;;;1.20;;
11328;SDS011;5719;42.714;23.732;2024-03-08T10:06:16;1.20;;;1.20;;
11328;SDS011;5719;42.714;23.732;2024-03-08T10:08:43;1.60;;;1.50;;
11328;SDS011;5719;42.714;23.732;2024-03-08T10:11:10;1.08;;;1.08;;
11328;SDS011;5719;42.714;23.732;2024-03-08T10:13:37;1.30;;;1.20;;
11328;SDS011;5719;42.714;23.732;2024-03-08T10:16:06;1.33;;;1.23;;
11328;SDS011;5719;42.714;23.732;2024-03-08T10:18:34;1.65;;;1.30;;
11328;SDS011;5719;42.714;23.732;2024-03-08T10:21:04;1.30;;;1.20;;
11328;SDS011;5719;42.714;23.732;2024-03-08T10:23:33;1.45;;;1.33;;
11328;SDS011;5719;42.714;23.732;2024-03-08T10:26:09;1.60;;;1.30;;
11328;SDS011;5719;42.714;23.732;2024-03-08T10:28:39;1.50;;;1.40;;
11328;SDS011;5719;42.714;23.732;2024-03-08T10:31:06;1.60;;;1.40;;
11328;SDS011;5719;42.714;23.732;2024-03-08T10:33:34;1.58;;;1.48;;
11328;SDS011;5719;42.714;23.732;2024-03-08T10:36:03;1.35;;;1.25;;
11328;SDS011;5719;42.714;23.732;2024-03-08T10:38:31;1.55;;;1.45;;
11328;SDS011;5719;42.714;23.732;2024-03-08T10:41:01;1.60;;;1.48;;
11328;SDS011;5719;42.714;23.732;2024-03-08T10:43:31;1.55;;;1.45;;
11328;SDS011;5719;42.714;23.732;2024-03-08T10:46:09;1.52;;;1.40;;
11328;SDS011;5719;42.714;23.732;2024-03-08T10:48:48;1.20;;;1.10;;
11328;SDS011;5719;42.714;23.732;2024-03-08T10:51:16;1.55;;;1.45;;
11328;SDS011;5719;42.714;23.732;2024-03-08T10:53:45;1.60;;;1.50;;
11328;SDS011;5719;42.714;23.732;2024-03-08T10:56:14;1.25;;;1.25;;
11328;SDS011;5719;42.714;23.732;2024-03-08T10:58:41;1.50;;;1.20;;
11328;SDS011;5719;42.714;23.732;2024-03-08T11:01:10;1.55;;;1.35;;
11328;SDS011;5719;42.714;23.732;2024-03-08T11:03:43;0.98;;;0.98;;
11328;SDS011;5719;42.714;23.732;2024-03-08T11:06:13;2.13;;;1.55;;
11328;SDS011;5719;42.714;23.732;2024-03-08T11:08:41;1.50;;;1.40;;
11328;SDS011;5719;42.714;23.732;2024-03-08T11:14:00;1.73;;;1.63;;
11328;SDS011;5719;42.714;23.732;2024-03-08T11:16:37;1.45;;;1.35;;
11328;SDS011;5719;42.714;23.732;2024-03-08T11:21:57;1.40;;;1.30;;
11328;SDS011;5719;42.714;23.732;2024-03-08T11:24:27;1.40;;;1.30;;
11328;SDS011;5719;42.714;23.732;2024-03-08T11:27:06;1.88;;;1.70;;
11328;SDS011;5719;42.714;23.732;2024-03-08T11:29:37;1.77;;;1.60;;
11328;SDS011;5719;42.714;23.732;2024-03-08T11:32:09;1.63;;;1.52;;
11328;SDS011;5719;42.714;23.732;2024-03-08T11:34:37;1.77;;;1.67;;
11328;SDS011;5719;42.714;23.732;2024-03-08T11:37:06;1.70;;;1.52;;
11328;SDS011;5719;42.714;23.732;2024-03-08T11:39:38;1.60;;;1.50;;
11328;SDS011;5719;42.714;23.732;2024-03-08T11:42:07;1.73;;;1.60;;
11328;SDS011;5719;42.714;23.732;2024-03-08T11:44:36;1.20;;;1.10;;
11328;SDS011;5719;42.714;23.732;2024-03-08T11:47:07;1.25;;;1.15;;
11328;SDS011;5719;42.714;23.732;2024-03-08T11:49:35;1.30;;;1.30;;
11328;SDS011;5719;42.714;23.732;2024-03-08T11:52:02;1.10;;;1.10;;
11328;SDS011;5719;42.714;23.732;2024-03-08T11:54:29;1.90;;;1.38;;
11328;SDS011;5719;42.714;23.732;2024-03-08T11:56:56;1.63;;;1.48;;
11328;SDS011;5719;42.714;23.732;2024-03-08T11:59:27;1.30;;;1.20;;
11328;SDS011;5719;42.714;23.732;2024-03-08T12:02:01;1.70;;;1.60;;
11328;SDS011;5719;42.714;23.732;2024-03-08T12:04:28;1.60;;;1.50;;
11328;SDS011;5719;42.714;23.732;2024-03-08T12:06:57;2.08;;;1.83;;
11328;SDS011;5719;42.714;23.732;2024-03-08T12:09:26;1.80;;;1.70;;
11328;SDS011;5719;42.714;23.732;2024-03-08T12:11:53;3.45;;;1.83;;
11328;SDS011;5719;42.714;23.732;2024-03-08T12:14:19;1.55;;;1.45;;
11328;SDS011;5719;42.714;23.732;2024-03-08T12:16:49;1.25;;;1.25;;
11328;SDS011;5719;42.714;23.732;2024-03-08T12:19:17;1.60;;;1.50;;
11328;SDS011;5719;42.714;23.732;2024-03-08T12:21:44;1.65;;;1.55;;
11328;SDS011;5719;42.714;23.732;2024-03-08T12:24:14;1.70;;;1.60;;
11328;SDS011;5719;42.714;23.732;2024-03-08T12:26:44;1.63;;;1.52;;
11328;SDS011;5719;42.714;23.732;2024-03-08T12:29:17;2.65;;;1.50;;
11328;SDS011;5719;42.714;23.732;2024-03-08T12:31:49;1.60;;;1.50;;
11328;SDS011;5719;42.714;23.732;2024-03-08T12:34:18;1.60;;;1.50;;
11328;SDS011;5719;42.714;23.732;2024-03-08T12:36:45;1.80;;;1.70;;
11328;SDS011;5719;42.714;23.732;2024-03-08T12:39:17;1.65;;;1.55;;
11328;SDS011;5719;42.714;23.732;2024-03-08T12:41:47;1.70;;;1.60;;
11328;SDS011;5719;42.714;23.732;2024-03-08T12:44:14;1.73;;;1.63;;
11328;SDS011;5719;42.714;23.732;2024-03-08T12:46:43;1.80;;;1.70;;
11328;SDS011;5719;42.714;23.732;2024-03-08T12:49:12;1.42;;;1.40;;
11328;SDS011;5719;42.714;23.732;2024-03-08T12:51:42;1.60;;;1.50;;
11328;SDS011;5719;42.714;23.732;2024-03-08T12:54:10;1.27;;;1.27;;
11328;SDS011;5719;42.714;23.732;2024-03-08T12:56:37;1.52;;;1.42;;
11328;SDS011;5719;42.714;23.732;2024-03-08T12:59:05;1.60;;;1.50;;
11328;SDS011;5719;42.714;23.732;2024-03-08T13:01:33;1.70;;;1.60;;
11328;SDS011;5719;42.714;23.732;2024-03-08T13:04:02;2.55;;;1.35;;
11328;SDS011;5719;42.714;23.732;2024-03-08T13:06:32;1.63;;;1.40;;
11328;SDS011;5719;42.714;23.732;2024-03-08T13:08:59;1.20;;;1.10;;
11328;SDS011;5719;42.714;23.732;2024-03-08T13:11:30;2.75;;;1.50;;
11328;SDS011;5719;42.714;23.732;2024-03-08T13:14:01;1.33;;;1.23;;
11328;SDS011;5719;42.714;23.732;2024-03-08T13:16:29;1.17;;;1.08;;
11328;SDS011;5719;42.714;23.732;2024-03-08T13:18:55;1.63;;;1.52;;
11328;SDS011;5719;42.714;23.732;2024-03-08T13:21:22;1.40;;;1.30;;
11328;SDS011;5719;42.714;23.732;2024-03-08T13:23:50;1.15;;;1.08;;
11328;SDS011;5719;42.714;23.732;2024-03-08T13:26:18;1.60;;;1.50;;
11328;SDS011;5719;42.714;23.732;2024-03-08T13:28:45;1.23;;;1.20;;
11328;SDS011;5719;42.714;23.732;2024-03-08T13:31:13;1.20;;;1.17;;
11328;SDS011;5719;42.714;23.732;2024-03-08T13:33:41;1.15;;;1.15;;
11328;SDS011;5719;42.714;23.732;2024-03-08T13:36:11;1.60;;;1.50;;
11328;SDS011;5719;42.714;23.732;2024-03-08T13:38:41;2.20;;;2.00;;
11328;SDS011;5719;42.714;23.732;2024-03-08T13:41:10;1.67;;;1.55;;
11328;SDS011;5719;42.714;23.732;2024-03-08T13:43:39;1.50;;;1.40;;
11328;SDS011;5719;42.714;23.732;2024-03-08T13:46:06;1.63;;;1.52;;
11328;SDS011;5719;42.714;23.732;2024-03-08T13:48:35;1.27;;;1.27;;
11328;SDS011;5719;42.714;23.732;2024-03-08T13:51:02;1.63;;;1.27;;
11328;SDS011;5719;42.714;23.732;2024-03-08T13:53:30;1.50;;;1.40;;
11328;SDS011;5719;42.714;23.732;2024-03-08T13:55:57;1.60;;;1.50;;
11328;SDS011;5719;42.714;23.732;2024-03-08T13:58:26;1.65;;;1.40;;
11328;SDS011;5719;42.714;23.732;2024-03-08T14:00:53;1.40;;;1.30;;
11328;SDS011;5719;42.714;23.732;2024-03-08T14:03:20;1.65;;;1.55;;
11328;SDS011;5719;42.714;23.732;2024-03-08T14:05:48;1.60;;;1.50;;
11328;SDS011;5719;42.714;23.732;2024-03-08T14:08:15;1.70;;;1.60;;
11328;SDS011;5719;42.714;23.732;2024-03-08T14:10:42;1.63;;;1.52;;
11328;SDS011;5719;42.714;23.732;2024-03-08T14:13:11;1.60;;;1.50;;
11328;SDS011;5719;42.714;23.732;2024-03-08T14:15:42;1.70;;;1.60;;
11328;SDS011;5719;42.714;23.732;2024-03-08T14:18:11;1.40;;;1.30;;
11328;SDS011;5719;42.714;23.732;2024-03-08T14:20:39;1.73;;;1.63;;
11328;SDS011;5719;42.714;23.732;2024-03-08T14:23:07;1.20;;;1.20;;
11328;SDS011;5719;42.714;23.732;2024-03-08T14:25:34;1.42;;;1.33;;
11328;SDS011;5719;42.714;23.732;2024-03-08T14:28:00;2.28;;;1.50;;
11328;SDS011;5719;42.714;23.732;2024-03-08T14:30:32;1.45;;;1.35;;
11328;SDS011;5719;42.714;23.732;2024-03-08T14:33:01;1.65;;;1.50;;
11328;SDS011;5719;42.714;23.732;2024-03-08T14:35:28;2.25;;;1.80;;
11328;SDS011;5719;42.714;23.732;2024-03-08T14:37:55;2.05;;;1.58;;
11328;SDS011;5719;42.714;23.732;2024-03-08T14:40:23;2.92;;;1.70;;
11328;SDS011;5719;42.714;23.732;2024-03-08T14:42:51;9.27;;;2.38;;
11328;SDS011;5719;42.714;23.732;2024-03-08T14:45:18;1.92;;;1.83;;
11328;SDS011;5719;42.714;23.732;2024-03-08T14:47:45;2.90;;;1.80;;
11328;SDS011;5719;42.714;23.732;2024-03-08T14:50:16;4.15;;;2.20;;
11328;SDS011;5719;42.714;23.732;2024-03-08T14:52:43;2.17;;;1.98;;
11328;SDS011;5719;42.714;23.732;2024-03-08T14:55:11;2.30;;;2.10;;